createdAt,value
2024-02-13T00:02:11.696Z,101545.09
2024-02-13T00:04:43.041Z,101547.63
2024-02-13T00:07:14.930Z,101553.50
2024-02-13T00:09:50.109Z,101550.16
2024-02-13T00:12:21.838Z,101553.50
2024-02-13T00:14:53.260Z,101554.41
2024-02-13T00:17:24.646Z,101551.91
2024-02-13T00:19:57.250Z,101556.97
2024-02-13T00:22:28.786Z,101560.41
2024-02-13T00:25:02.692Z,101565.47
2024-02-13T00:27:34.993Z,101566.34
2024-02-13T00:30:06.520Z,101568.06
2024-02-13T00:32:41.471Z,101561.34
2024-02-13T00:35:14.852Z,101566.41
2024-02-13T00:37:47.909Z,101563.06
2024-02-13T00:40:22.083Z,101563.06
2024-02-13T00:42:53.935Z,101562.25
2024-02-13T00:45:25.277Z,101563.97
2024-02-13T00:47:56.689Z,101574.09
2024-02-13T00:50:28.500Z,101576.63
2024-02-13T00:53:00.461Z,101575.78
2024-02-13T00:55:34.854Z,101576.63
2024-02-13T00:58:06.327Z,101578.31
2024-02-13T01:00:37.732Z,101584.19
2024-02-13T01:03:08.821Z,101594.31
2024-02-13T01:05:42.664Z,101593.41
2024-02-13T01:08:14.431Z,101590.84
2024-02-13T01:10:48.682Z,101594.22
2024-02-13T01:13:20.007Z,101598.38
2024-02-13T01:15:51.339Z,101596.59
2024-02-13T01:18:23.835Z,101596.56
2024-02-13T01:20:55.588Z,101597.38
2024-02-13T01:23:27.001Z,101596.47
2024-02-13T01:26:01.102Z,101596.44
2024-02-13T01:28:32.406Z,101599.78
2024-02-13T01:31:04.441Z,101596.34
2024-02-13T01:33:35.920Z,101596.34
2024-02-13T01:36:08.797Z,101603.91
2024-02-13T01:38:40.352Z,101603.09
2024-02-13T01:41:16.002Z,101606.50
2024-02-13T01:43:47.470Z,101607.34
2024-02-13T01:46:21.221Z,101609.06
2024-02-13T01:48:52.921Z,101614.16
2024-02-13T01:51:28.537Z,101606.59
2024-02-13T01:54:02.068Z,101619.25
2024-02-13T01:56:37.375Z,101620.13
2024-02-13T01:59:09.685Z,101614.28
2024-02-13T02:01:41.836Z,101612.69
2024-02-13T02:04:13.885Z,101611.88
2024-02-13T02:06:46.209Z,101615.28
2024-02-13T02:09:18.217Z,101606.06
2024-02-13T02:11:52.710Z,101610.31
2024-02-13T02:14:24.814Z,101609.50
2024-02-13T02:16:56.317Z,101616.31
2024-02-13T02:19:27.244Z,101612.94
2024-02-13T02:21:59.956Z,101611.28
2024-02-13T02:24:35.745Z,101618.94
2024-02-13T02:27:09.930Z,101622.31
2024-02-13T02:29:41.771Z,101624.03
2024-02-13T02:32:13.298Z,101624.03
2024-02-13T02:34:44.723Z,101630.78
2024-02-13T02:37:16.142Z,101618.97
2024-02-13T02:39:46.938Z,101620.66
2024-02-13T02:42:22.660Z,101618.97
2024-02-13T02:44:54.564Z,101611.38
2024-02-13T02:47:25.986Z,101612.19
2024-02-13T02:49:57.375Z,101610.47
2024-02-13T02:52:29.502Z,101605.38
2024-02-13T02:55:01.336Z,101615.50
2024-02-13T02:57:35.981Z,101610.41
2024-02-13T03:00:11.282Z,101613.78
2024-02-13T03:02:43.431Z,101615.50
2024-02-13T03:05:14.834Z,101624.00
2024-02-13T03:07:47.345Z,101621.47
2024-02-13T03:10:18.870Z,101616.41
2024-02-13T03:12:52.392Z,101621.50
2024-02-13T03:15:23.883Z,101617.25
2024-02-13T03:17:55.300Z,101620.66
2024-02-13T03:20:26.849Z,101622.31
2024-02-13T03:22:58.280Z,101622.31
2024-02-13T03:25:29.193Z,101624.84
2024-02-13T03:28:03.873Z,101631.69
2024-02-13T03:30:35.497Z,101630.84
2024-02-13T03:33:07.056Z,101636.75
2024-02-13T03:35:38.509Z,101624.09
2024-02-13T03:38:07.670Z,101623.22
2024-02-13T03:40:39.364Z,101620.69
2024-02-13T03:43:13.632Z,101630.78
2024-02-13T03:45:44.954Z,101630.75
2024-02-13T03:48:16.623Z,101629.88
2024-02-13T03:50:48.316Z,101627.31
2024-02-13T03:53:19.728Z,101623.09
2024-02-13T03:55:50.609Z,101618.84
2024-02-13T03:58:24.527Z,101628.94
2024-02-13T04:00:55.934Z,101621.34
2024-02-13T04:03:28.443Z,101622.16
2024-02-13T04:06:00.059Z,101626.38
2024-02-13T04:08:31.487Z,101624.69
2024-02-13T04:11:05.146Z,101630.56
2024-02-13T04:13:39.026Z,101640.66
2024-02-13T04:16:12.235Z,101630.53
2024-02-13T04:18:43.670Z,101636.44
2024-02-13T04:21:20.974Z,101633.91
2024-02-13T04:23:53.776Z,101638.97
2024-02-13T04:26:35.701Z,101639.84
2024-02-13T04:29:11.380Z,101638.97
2024-02-13T04:31:44.238Z,101635.59
2024-02-13T04:34:15.718Z,101645.72
2024-02-13T04:36:47.240Z,101644.88
2024-02-13T04:39:18.606Z,101642.31
2024-02-13T04:41:50.286Z,101646.53
2024-02-13T04:44:24.279Z,101652.41
2024-02-13T04:46:57.351Z,101653.19
2024-02-13T04:49:28.704Z,101652.34
2024-02-13T04:51:59.889Z,101649.75
2024-02-13T04:54:31.705Z,101659.00
2024-02-13T04:57:05.034Z,101657.22
2024-02-13T04:59:49.645Z,101653.81
2024-02-13T05:02:26.362Z,101652.06
2024-02-13T05:05:10.205Z,101657.91
2024-02-13T05:07:42.117Z,101652.78
2024-02-13T05:10:13.674Z,101654.44
2024-02-13T05:12:45.395Z,101650.19
2024-02-13T05:15:22.596Z,101654.38
2024-02-13T05:17:54.122Z,101649.31
2024-02-13T05:20:25.540Z,101659.38
2024-02-13T05:22:57.647Z,101654.31
2024-02-13T05:25:29.234Z,101660.19
2024-02-13T05:28:01.167Z,101657.63
2024-02-13T05:30:35.020Z,101655.94
2024-02-13T05:33:06.588Z,101658.44
2024-02-13T05:35:40.038Z,101661.78
2024-02-13T05:38:11.411Z,101655.91
2024-02-13T05:40:43.671Z,101660.97
2024-02-13T05:43:15.634Z,101655.09
2024-02-13T05:45:50.370Z,101655.94
2024-02-13T05:48:23.557Z,101660.19
2024-02-13T05:50:55.994Z,101658.56
2024-02-13T05:53:30.176Z,101652.63
2024-02-13T05:56:02.223Z,101645.94
2024-02-13T05:58:35.208Z,101661.94
2024-02-13T06:01:13.942Z,101649.28
2024-02-13T06:03:46.441Z,101654.31
2024-02-13T06:06:17.821Z,101651.78
2024-02-13T06:08:48.900Z,101646.69
2024-02-13T06:11:20.395Z,101645.03
2024-02-13T06:13:52.219Z,101656.03
2024-02-13T06:16:26.163Z,101650.13
2024-02-13T06:18:57.553Z,101652.72
2024-02-13T06:21:30.025Z,101657.81
2024-02-13T06:24:01.598Z,101659.50
2024-02-13T06:26:33.053Z,101667.94
2024-02-13T06:29:04.236Z,101667.97
2024-02-13T06:31:38.483Z,101667.16
2024-02-13T06:34:09.871Z,101670.56
2024-02-13T06:36:41.349Z,101669.75
2024-02-13T06:39:13.656Z,101663.81
2024-02-13T06:41:45.538Z,101665.53
2024-02-13T06:44:16.864Z,101672.25
2024-02-13T06:46:50.824Z,101683.22
2024-02-13T06:49:22.504Z,101685.72
2024-02-13T06:51:54.085Z,101684.88
2024-02-13T06:54:26.016Z,101692.53
2024-02-13T06:56:57.332Z,101697.56
2024-02-13T06:59:28.707Z,101700.97
2024-02-13T07:02:03.080Z,101700.16
2024-02-13T07:04:34.463Z,101705.22
2024-02-13T07:07:19.300Z,101705.25
2024-02-13T07:09:58.607Z,101704.44
2024-02-13T07:12:30.570Z,101701.91
2024-02-13T07:15:01.907Z,101707.88
2024-02-13T07:17:45.256Z,101715.47
2024-02-13T07:20:24.974Z,101708.75
2024-02-13T07:22:56.614Z,101713.00
2024-02-13T07:25:27.499Z,101718.13
2024-02-13T07:28:00.109Z,101713.91
2024-02-13T07:30:33.922Z,101713.94
2024-02-13T07:33:08.413Z,101720.69
2024-02-13T07:35:39.976Z,101722.41
2024-02-13T07:38:11.419Z,101724.13
2024-02-13T07:40:43.254Z,101733.44
2024-02-13T07:43:16.161Z,101741.06
2024-02-13T07:45:47.690Z,101736.91
2024-02-13T07:48:22.687Z,101742.00
2024-02-13T07:50:55.455Z,101740.41
2024-02-13T07:53:27.489Z,101739.59
2024-02-13T07:55:58.917Z,101746.38
2024-02-13T07:58:29.885Z,101743.94
2024-02-13T08:01:01.788Z,101745.72
2024-02-13T08:03:37.804Z,101739.91
2024-02-13T08:06:09.717Z,101750.97
2024-02-13T08:08:41.143Z,101744.31
2024-02-13T08:11:12.543Z,101748.66
2024-02-13T08:13:43.913Z,101749.63
2024-02-13T08:16:15.453Z,101755.59
2024-02-13T08:18:51.941Z,101754.84
2024-02-13T08:21:23.753Z,101762.53
2024-02-13T08:23:55.088Z,101757.56
2024-02-13T08:26:25.924Z,101770.34
2024-02-13T08:28:57.191Z,101770.44
2024-02-13T08:31:29.202Z,101761.22
2024-02-13T08:34:04.168Z,101772.34
2024-02-13T08:36:38.487Z,101764.00
2024-02-13T08:39:11.393Z,101769.22
2024-02-13T08:41:42.952Z,101760.81
2024-02-13T08:44:14.305Z,101770.97
2024-02-13T08:46:45.656Z,101771.78
2024-02-13T08:49:19.209Z,101773.44
2024-02-13T08:51:50.871Z,101771.72
2024-02-13T08:54:22.104Z,101772.63
2024-02-13T08:56:53.449Z,101771.06
2024-02-13T08:59:24.818Z,101775.41
2024-02-13T09:01:57.404Z,101776.31
2024-02-13T09:04:31.348Z,101776.38
2024-02-13T09:07:02.688Z,101777.25
2024-02-13T09:09:34.535Z,101779.00
2024-02-13T09:12:06.936Z,101783.28
2024-02-13T09:14:38.343Z,101784.22
2024-02-13T09:17:09.697Z,101777.53
2024-02-13T09:19:44.537Z,101786.03
2024-02-13T09:22:16.941Z,101774.22
2024-02-13T09:24:52.877Z,101785.25
2024-02-13T09:27:25.393Z,101790.34
2024-02-13T09:29:57.309Z,101794.59
2024-02-13T09:32:29.115Z,101792.88
2024-02-13T09:35:03.359Z,101797.97
2024-02-13T09:37:36.115Z,101793.72
2024-02-13T09:40:14.471Z,101793.75
2024-02-13T09:42:47.386Z,101784.44
2024-02-13T09:45:19.234Z,101782.72
2024-02-13T09:47:51.520Z,101792.94
2024-02-13T09:50:27.224Z,101794.66
2024-02-13T09:53:02.015Z,101788.72
2024-02-13T09:55:36.644Z,101796.41
2024-02-13T09:58:08.510Z,101793.94
2024-02-13T10:00:39.958Z,101795.66
2024-02-13T10:03:13.397Z,101800.81
2024-02-13T10:05:48.483Z,101811.06
2024-02-13T10:08:22.318Z,101798.41
2024-02-13T10:11:04.960Z,101799.31
2024-02-13T10:13:43.806Z,101807.84
2024-02-13T10:16:27.780Z,101803.63
2024-02-13T10:19:02.358Z,101812.97
2024-02-13T10:21:37.430Z,101803.63
2024-02-13T10:24:10.662Z,101817.22
2024-02-13T10:26:42.268Z,101812.16
2024-02-13T10:29:14.855Z,101813.00
2024-02-13T10:31:46.761Z,101806.22
2024-02-13T10:34:18.123Z,101813.03
2024-02-13T10:36:52.785Z,101809.63
2024-02-13T10:39:30.879Z,101820.66
2024-02-13T10:42:03.921Z,101818.94
2024-02-13T10:44:40.808Z,101824.03
2024-02-13T10:47:14.878Z,101818.97
2024-02-13T10:49:55.639Z,101816.38
2024-02-13T10:52:31.340Z,101808.72
2024-02-13T10:55:08.116Z,101816.34
2024-02-13T10:57:41.489Z,101818.88
2024-02-13T11:00:16.218Z,101826.47
2024-02-13T11:02:48.661Z,101820.47
2024-02-13T11:05:20.776Z,101821.34
2024-02-13T11:07:54.784Z,101828.09
2024-02-13T11:10:36.304Z,101823.81
2024-02-13T11:13:10.999Z,101828.00
2024-02-13T11:15:43.267Z,101820.31
2024-02-13T11:18:15.802Z,101810.06
2024-02-13T11:20:47.756Z,101811.75
2024-02-13T11:23:26.808Z,101818.63
2024-02-13T11:26:01.672Z,101820.38
2024-02-13T11:28:42.759Z,101820.34
2024-02-13T11:31:18.179Z,101825.41
2024-02-13T11:34:05.843Z,101816.06
2024-02-13T11:36:38.732Z,101820.34
2024-02-13T11:39:14.363Z,101824.59
2024-02-13T11:41:46.497Z,101827.13
2024-02-13T11:44:22.343Z,101833.00
2024-02-13T11:46:56.093Z,101825.25
2024-02-13T11:49:29.763Z,101825.19
2024-02-13T11:52:02.281Z,101817.50
2024-02-13T11:54:37.856Z,101817.44
2024-02-13T11:57:11.285Z,101808.03
2024-02-13T11:59:43.849Z,101810.59
2024-02-13T12:02:16.940Z,101817.50
2024-02-13T12:04:50.275Z,101812.41
2024-02-13T12:07:23.250Z,101814.06
2024-02-13T12:10:08.351Z,101814.03
2024-02-13T12:12:40.162Z,101820.03
2024-02-13T12:15:15.093Z,101815.78
2024-02-13T12:17:49.150Z,101813.19
2024-02-13T12:20:26.436Z,101814.03
2024-02-13T12:22:59.985Z,101815.72
2024-02-13T12:25:37.110Z,101815.72
2024-02-13T12:28:08.562Z,101814.84
2024-02-13T12:30:43.335Z,101818.22
2024-02-13T12:33:21.873Z,101815.59
2024-02-13T12:36:07.188Z,101800.25
2024-02-13T12:38:40.227Z,101806.97
2024-02-13T12:41:14.414Z,101804.34
2024-02-13T12:46:14.487Z,101806.81
2024-02-13T12:50:52.916Z,101819.56
2024-02-13T12:53:26.733Z,101822.22
2024-02-13T12:56:00.080Z,101806.97
2024-02-13T12:58:31.459Z,101819.75
2024-02-13T13:01:04.909Z,101820.56
2024-02-13T13:03:38.384Z,101816.34
2024-02-13T13:06:13.286Z,101823.28
2024-02-13T13:08:45.543Z,101809.69
2024-02-13T13:11:17.691Z,101799.50
2024-02-13T13:13:49.108Z,101805.41
2024-02-13T13:16:25.056Z,101808.00
2024-02-13T13:18:56.557Z,101809.66
2024-02-13T13:21:30.964Z,101812.19
2024-02-13T13:24:04.544Z,101805.41
2024-02-13T13:26:40.483Z,101810.59
2024-02-13T13:29:12.839Z,101802.09
2024-02-13T13:31:45.639Z,101795.31
2024-02-13T13:34:22.069Z,101798.75
2024-02-13T13:36:58.929Z,101801.38
2024-02-13T13:39:33.078Z,101802.25
2024-02-13T13:42:10.298Z,101781.81
2024-02-13T13:44:42.561Z,101783.50
2024-02-13T13:47:13.954Z,101787.75
2024-02-13T13:49:45.613Z,101776.63
2024-02-13T13:52:19.857Z,101779.97
2024-02-13T13:54:51.511Z,101779.91
2024-02-13T13:57:22.949Z,101781.53
2024-02-13T13:59:54.396Z,101778.94
2024-02-13T14:02:27.166Z,101779.78
2024-02-13T14:04:58.954Z,101777.19
2024-02-13T14:07:32.932Z,101769.47
2024-02-13T14:10:04.311Z,101777.88
2024-02-13T14:12:35.820Z,101777.03
2024-02-13T14:15:08.242Z,101778.69
2024-02-13T14:17:39.732Z,101780.34
2024-02-13T14:20:16.052Z,101778.63
2024-02-13T14:22:50.524Z,101785.47
2024-02-13T14:25:22.281Z,101780.41
2024-02-13T14:27:54.171Z,101788.06
2024-02-13T14:30:25.816Z,101778.66
2024-02-13T14:32:58.084Z,101784.63
2024-02-13T14:35:30.654Z,101775.31
2024-02-13T14:38:04.971Z,101782.09
2024-02-13T14:40:39.146Z,101793.13
2024-02-13T14:43:12.386Z,101790.56
2024-02-13T14:45:45.757Z,101786.34
2024-02-13T14:48:17.795Z,101790.66
2024-02-13T14:50:50.209Z,101779.63
2024-02-13T14:53:25.376Z,101772.78
2024-02-13T14:55:56.757Z,101777.09
2024-02-13T14:58:38.183Z,101772.88
2024-02-13T15:01:11.527Z,101783.97
2024-02-13T15:03:46.592Z,101783.16
2024-02-13T15:06:20.165Z,101782.34
2024-02-13T15:08:56.006Z,101787.50
2024-02-13T15:11:28.516Z,101784.16
2024-02-13T15:14:00.733Z,101784.19
2024-02-13T15:16:32.951Z,101775.69
2024-02-13T15:19:04.613Z,101777.38
2024-02-13T15:21:36.671Z,101770.56
2024-02-13T15:24:12.461Z,101770.59
2024-02-13T15:26:43.941Z,101768.03
2024-02-13T15:29:17.217Z,101768.06
2024-02-13T15:31:48.881Z,101765.47
2024-02-13T15:34:20.293Z,101771.44
2024-02-13T15:37:11.300Z,101763.78
2024-02-13T15:39:57.599Z,101762.94
2024-02-13T15:42:43.777Z,101754.50
2024-02-13T15:45:27.929Z,101760.44
2024-02-13T15:47:59.628Z,101753.69
2024-02-13T15:50:31.176Z,101759.66
2024-02-13T15:53:04.367Z,101756.28
2024-02-13T15:55:38.498Z,101753.72
2024-02-13T15:58:09.863Z,101753.75
2024-02-13T16:00:41.271Z,101763.16
2024-02-13T16:03:12.620Z,101753.81
2024-02-13T16:05:43.925Z,101757.25
2024-02-13T16:08:15.248Z,101751.31
2024-02-13T16:10:49.858Z,101758.16
2024-02-13T16:13:28.407Z,101757.28
2024-02-13T16:16:01.654Z,101757.31
2024-02-13T16:18:33.109Z,101757.31
2024-02-13T16:21:04.877Z,101754.81
2024-02-13T16:23:36.270Z,101753.13
2024-02-13T16:26:12.661Z,101750.59
2024-02-13T16:28:44.131Z,101761.69
2024-02-13T16:31:15.872Z,101749.78
2024-02-13T16:33:47.237Z,101752.34
2024-02-13T16:36:19.302Z,101757.47
2024-02-13T16:38:50.713Z,101761.69
2024-02-13T16:41:25.326Z,101762.56
2024-02-13T16:43:56.665Z,101758.34
2024-02-13T16:46:35.647Z,101766.84
2024-02-13T16:49:07.052Z,101760.88
2024-02-13T16:51:39.146Z,101765.16
2024-02-13T16:54:11.390Z,101770.28
2024-02-13T16:56:45.394Z,101773.69
2024-02-13T16:59:16.834Z,101786.47
2024-02-13T17:01:50.343Z,101787.34
2024-02-13T17:04:22.065Z,101778.84
2024-02-13T17:06:53.475Z,101783.97
2024-02-13T17:09:24.862Z,101779.72
2024-02-13T17:11:58.861Z,101792.50
2024-02-13T17:14:31.611Z,101789.97
2024-02-13T17:17:06.238Z,101775.53
2024-02-13T17:19:37.556Z,101785.75
2024-02-13T17:22:09.720Z,101783.22
2024-02-13T17:24:45.113Z,101778.97
2024-02-13T17:27:19.090Z,101785.78
2024-02-13T17:29:51.157Z,101780.72
2024-02-13T17:32:22.731Z,101783.22
2024-02-13T17:34:54.178Z,101783.25
2024-02-13T17:37:25.564Z,101790.91
2024-02-13T17:39:56.825Z,101780.72
2024-02-13T17:42:31.055Z,101784.97
2024-02-13T17:45:04.294Z,101781.56
2024-02-13T17:47:38.080Z,101777.31
2024-02-13T17:50:10.807Z,101783.28
2024-02-13T17:52:44.142Z,101781.56
2024-02-13T17:55:18.845Z,101783.31
2024-02-13T17:57:54.379Z,101777.34
2024-02-13T18:00:26.534Z,101779.88
2024-02-13T18:02:57.918Z,101777.34
2024-02-13T18:05:32.132Z,101777.38
2024-02-13T18:08:05.504Z,101775.66
2024-02-13T18:10:37.256Z,101776.50
2024-02-13T18:13:12.926Z,101769.72
2024-02-13T18:15:44.591Z,101764.63
2024-02-13T18:18:16.030Z,101762.94
2024-02-13T18:20:47.939Z,101760.38
2024-02-13T18:23:19.408Z,101756.97
2024-02-13T18:25:51.035Z,101757.81
2024-02-13T18:28:25.035Z,101748.47
2024-02-13T18:30:56.438Z,101750.19
2024-02-13T18:33:27.901Z,101746.81
2024-02-13T18:35:59.346Z,101741.69
2024-02-13T18:38:30.699Z,101740.88
2024-02-13T18:41:02.559Z,101740.88
2024-02-13T18:43:36.427Z,101740.00
2024-02-13T18:46:08.978Z,101734.91
2024-02-13T18:48:42.867Z,101730.66
2024-02-13T18:51:14.798Z,101732.38
2024-02-13T18:53:47.052Z,101728.13
2024-02-13T18:56:20.059Z,101725.56
2024-02-13T18:58:56.960Z,101727.28
2024-02-13T19:01:30.947Z,101716.25
2024-02-13T19:04:02.769Z,101700.13
2024-02-13T19:06:34.193Z,101697.59
2024-02-13T19:09:06.800Z,101700.13
2024-02-13T19:11:41.349Z,101703.50
2024-02-13T19:14:15.394Z,101706.06
2024-02-13T19:16:46.697Z,101689.06
2024-02-13T19:19:18.407Z,101689.06
2024-02-13T19:21:49.827Z,101687.38
2024-02-13T19:24:21.431Z,101678.91
2024-02-13T19:26:53.952Z,101695.03
2024-02-13T19:29:27.947Z,101687.41
2024-02-13T19:31:59.511Z,101688.25
2024-02-13T19:34:31.326Z,101689.06
2024-02-13T19:37:03.100Z,101678.91
2024-02-13T19:39:37.952Z,101682.31
2024-02-13T19:42:09.669Z,101678.91
2024-02-13T19:44:45.943Z,101672.09
2024-02-13T19:47:17.301Z,101669.56
2024-02-13T19:49:48.648Z,101669.56
2024-02-13T19:52:23.031Z,101663.63
2024-02-13T19:54:54.363Z,101654.31
2024-02-13T19:57:26.532Z,101647.50
2024-02-13T20:00:00.744Z,101646.66
2024-02-13T20:02:33.687Z,101641.56
2024-02-13T20:05:06.742Z,101644.94
2024-02-13T20:07:39.272Z,101634.75
2024-02-13T20:10:11.977Z,101629.66
2024-02-13T20:12:45.057Z,101637.31
2024-02-13T20:15:19.265Z,101622.88
2024-02-13T20:17:51.440Z,101628.81
2024-02-13T20:20:23.213Z,101622.03
2024-02-13T20:22:55.943Z,101626.25
2024-02-13T20:25:27.450Z,101626.25
2024-02-13T20:28:00.091Z,101614.38
2024-02-13T20:30:36.761Z,101616.06
2024-02-13T20:33:09.079Z,101609.28
2024-02-13T20:35:41.378Z,101607.56
2024-02-13T20:38:12.760Z,101610.94
2024-02-13T20:40:44.442Z,101609.28
2024-02-13T20:43:17.284Z,101602.47
2024-02-13T20:45:51.131Z,101599.88
2024-02-13T20:48:22.528Z,101592.28
2024-02-13T20:50:54.822Z,101586.31
2024-02-13T20:53:26.291Z,101582.09
2024-02-13T20:56:02.805Z,101582.91
2024-02-13T20:58:35.103Z,101584.59
2024-02-13T21:01:09.266Z,101577.81
2024-02-13T21:03:40.653Z,101577.81
2024-02-13T21:06:12.232Z,101575.25
2024-02-13T21:08:43.906Z,101566.75
2024-02-13T21:11:17.946Z,101571.81
2024-02-13T21:13:51.177Z,101563.34
2024-02-13T21:16:30.876Z,101567.56
2024-02-13T21:19:02.850Z,101558.22
2024-02-13T21:21:47.983Z,101560.75
2024-02-13T21:24:19.418Z,101555.66
2024-02-13T21:26:50.820Z,101551.41
2024-02-13T21:29:22.196Z,101543.75
2024-02-13T21:31:58.122Z,101542.06
2024-02-13T21:34:29.923Z,101542.03
2024-02-13T21:37:01.413Z,101546.28
2024-02-13T21:39:33.454Z,101538.59
2024-02-13T21:42:05.007Z,101550.47
2024-02-13T21:44:36.392Z,101549.63
2024-02-13T21:47:11.292Z,101551.31
2024-02-13T21:49:42.714Z,101544.53
2024-02-13T21:52:14.447Z,101549.63
2024-02-13T21:54:45.954Z,101544.56
2024-02-13T21:57:19.100Z,101538.59
2024-02-13T21:59:50.602Z,101547.09
2024-02-13T22:03:03.364Z,101538.59
2024-02-13T22:05:35.144Z,101542.03
2024-02-13T22:08:06.743Z,101543.75
2024-02-13T22:10:39.351Z,101539.53
2024-02-13T22:13:10.629Z,101537.00
2024-02-13T22:15:41.892Z,101531.09
2024-02-13T22:18:16.159Z,101536.19
2024-02-13T22:20:47.733Z,101530.25
2024-02-13T22:23:19.028Z,101527.69
2024-02-13T22:25:50.313Z,101520.09
2024-02-13T22:28:21.632Z,101509.03
2024-02-13T22:30:53.581Z,101514.16
2024-02-13T22:33:27.978Z,101508.22
2024-02-13T22:35:59.408Z,101510.75
2024-02-13T22:38:30.823Z,101513.31
2024-02-13T22:41:02.522Z,101503.97
2024-02-13T22:43:33.757Z,101493.78
2024-02-13T22:46:05.941Z,101495.50
2024-02-13T22:48:40.734Z,101495.50
2024-02-13T22:51:12.502Z,101489.56
2024-02-13T22:53:44.172Z,101492.94
2024-02-13T22:56:15.487Z,101487.84
2024-02-13T22:58:46.958Z,101489.53
2024-02-13T23:01:18.446Z,101480.19
2024-02-13T23:03:53.206Z,101481.88
2024-02-13T23:06:24.612Z,101486.13
2024-02-13T23:08:55.920Z,101482.72
2024-02-13T23:11:28.739Z,101477.63
2024-02-13T23:14:00.586Z,101472.50
2024-02-13T23:16:33.104Z,101475.03
2024-02-13T23:19:08.159Z,101466.56
2024-02-13T23:21:40.154Z,101469.09
2024-02-13T23:24:12.137Z,101456.34
2024-02-13T23:26:43.820Z,101452.94
2024-02-13T23:29:15.152Z,101455.50
2024-02-13T23:31:46.922Z,101447.84
2024-02-13T23:34:20.895Z,101448.69
2024-02-13T23:36:52.230Z,101435.13
2024-02-13T23:39:23.545Z,101445.28
2024-02-13T23:41:55.025Z,101443.56
2024-02-13T23:44:26.792Z,101433.34
2024-02-13T23:46:58.135Z,101449.50
2024-02-13T23:49:32.643Z,101438.44
2024-02-13T23:52:04.342Z,101446.06
2024-02-13T23:54:36.483Z,101440.09
2024-02-13T23:57:10.827Z,101451.13
2024-02-13T23:59:42.270Z,101434.13
